createdAt,value
2023-02-13T00:00:49.333Z,7.10
2023-02-13T00:03:19.434Z,7.10
2023-02-13T00:05:49.496Z,7.00
2023-02-13T00:08:19.505Z,7.10
2023-02-13T00:10:50.167Z,7.10
2023-02-13T00:13:20.930Z,7.00
2023-02-13T00:16:01.094Z,7.00
2023-02-13T00:18:31.328Z,7.00
2023-02-13T00:21:02.076Z,7.00
2023-02-13T00:23:32.981Z,6.90
2023-02-13T00:26:03.916Z,6.90
2023-02-13T00:28:33.983Z,7.00
2023-02-13T00:31:10.978Z,6.90
2023-02-13T00:33:41.624Z,6.90
2023-02-13T00:36:13.568Z,6.90
2023-02-13T00:38:44.194Z,6.90
2023-02-13T00:41:16.802Z,6.90
2023-02-13T00:43:47.226Z,6.80
2023-02-13T00:46:20.846Z,6.80
2023-02-13T00:48:50.954Z,6.80
2023-02-13T00:51:20.964Z,6.70
2023-02-13T00:53:51.057Z,6.70
2023-02-13T00:56:21.120Z,6.70
2023-02-13T00:58:51.164Z,6.70
2023-02-13T01:01:23.910Z,6.70
2023-02-13T01:03:53.979Z,6.60
2023-02-13T01:06:24.583Z,6.60
2023-02-13T01:08:54.631Z,6.60
2023-02-13T01:11:24.696Z,6.60
2023-02-13T01:13:54.796Z,6.60
2023-02-13T01:16:27.536Z,6.60
2023-02-13T01:18:59.144Z,6.60
2023-02-13T01:21:29.172Z,6.60
2023-02-13T01:23:59.241Z,6.50
2023-02-13T01:26:29.296Z,6.50
2023-02-13T01:28:59.363Z,6.60
2023-02-13T01:31:32.063Z,6.50
2023-02-13T01:34:02.600Z,6.50
2023-02-13T01:36:35.540Z,6.40
2023-02-13T01:39:05.524Z,6.40
2023-02-13T01:41:35.433Z,6.40
2023-02-13T01:44:05.610Z,6.40
2023-02-13T01:46:40.143Z,6.40
2023-02-13T01:49:15.478Z,6.30
2023-02-13T01:51:45.824Z,6.40
2023-02-13T01:54:16.959Z,6.40
2023-02-13T01:56:48.951Z,6.30
2023-02-13T01:59:20.181Z,6.30
2023-02-13T02:01:53.321Z,6.30
2023-02-13T02:04:25.656Z,6.30
2023-02-13T02:06:58.953Z,6.30
2023-02-13T02:09:35.715Z,6.30
2023-02-13T02:12:08.819Z,6.10
2023-02-13T02:14:41.040Z,6.20
2023-02-13T02:17:15.584Z,6.20
2023-02-13T02:19:53.189Z,6.20
2023-02-13T02:22:46.275Z,6.10
2023-02-13T02:25:32.002Z,6.20
2023-02-13T02:28:19.103Z,6.20
2023-02-13T02:31:00.038Z,6.10
2023-02-13T02:33:37.077Z,6.10
2023-02-13T02:36:14.479Z,6.20
2023-02-13T02:38:52.074Z,6.20
2023-02-13T02:41:40.945Z,6.20
2023-02-13T02:44:18.554Z,6.20
2023-02-13T02:47:08.422Z,6.20
2023-02-13T02:49:56.442Z,6.20
2023-02-13T02:52:29.511Z,6.10
2023-02-13T02:55:09.434Z,6.10
2023-02-13T02:58:02.484Z,6.10
2023-02-13T03:00:47.177Z,6.10
2023-02-13T03:03:33.036Z,6.10
2023-02-13T03:06:16.571Z,6.00
2023-02-13T03:09:00.709Z,6.00
2023-02-13T03:11:43.078Z,6.00
2023-02-13T03:14:14.471Z,6.20
2023-02-13T03:16:57.014Z,6.00
2023-02-13T03:19:43.776Z,6.00
2023-02-13T03:22:25.180Z,6.00
2023-02-13T03:24:58.641Z,5.90
2023-02-13T03:27:51.515Z,5.90
2023-02-13T03:30:25.142Z,5.90
2023-02-13T03:33:00.700Z,5.90
2023-02-13T03:35:49.689Z,5.80
2023-02-13T03:38:25.916Z,5.80
2023-02-13T03:41:13.151Z,5.80
2023-02-13T03:43:45.812Z,5.80
2023-02-13T03:46:16.035Z,5.70
2023-02-13T03:49:00.069Z,5.80
2023-02-13T03:51:32.454Z,5.80
2023-02-13T03:54:08.736Z,5.70
2023-02-13T03:56:52.655Z,5.60
2023-02-13T03:59:25.910Z,5.60
2023-02-13T04:01:59.682Z,5.50
2023-02-13T04:04:33.873Z,5.60
2023-02-13T04:07:06.301Z,5.60
2023-02-13T04:09:40.424Z,5.60
2023-02-13T04:12:13.442Z,5.60
2023-02-13T04:14:46.717Z,5.60
2023-02-13T04:17:19.042Z,5.60
2023-02-13T04:19:49.095Z,5.60
2023-02-13T04:22:19.220Z,5.50
2023-02-13T04:24:51.813Z,5.50
2023-02-13T04:27:21.911Z,5.50
2023-02-13T04:29:51.854Z,5.40
2023-02-13T04:32:21.911Z,5.40
2023-02-13T04:34:51.908Z,5.40
2023-02-13T04:37:21.857Z,5.50
2023-02-13T04:39:54.624Z,5.30
2023-02-13T04:42:24.616Z,5.30
2023-02-13T04:44:57.382Z,5.30
2023-02-13T04:47:27.323Z,5.30
2023-02-13T04:49:57.308Z,5.30
2023-02-13T04:52:27.311Z,5.20
2023-02-13T04:55:00.003Z,5.20
2023-02-13T04:57:30.022Z,5.20
2023-02-13T05:00:00.038Z,5.20
2023-02-13T05:02:30.084Z,5.10
2023-02-13T05:05:00.149Z,5.00
2023-02-13T05:07:30.224Z,5.10
2023-02-13T05:10:02.880Z,5.10
2023-02-13T05:12:32.903Z,5.10
2023-02-13T05:15:02.916Z,5.10
2023-02-13T05:17:32.943Z,5.10
2023-02-13T05:20:02.978Z,5.10
2023-02-13T05:22:45.311Z,5.00
2023-02-13T05:25:17.921Z,5.00
2023-02-13T05:27:47.902Z,5.00
2023-02-13T05:30:15.745Z,5.00
2023-02-13T05:32:46.096Z,5.00
2023-02-13T05:35:16.127Z,5.00
2023-02-13T05:37:46.065Z,4.90
2023-02-13T05:40:19.007Z,4.90
2023-02-13T05:42:49.023Z,4.90
2023-02-13T05:45:19.154Z,4.90
2023-02-13T05:47:49.609Z,4.90
2023-02-13T05:50:19.822Z,4.90
2023-02-13T05:52:49.835Z,4.90
2023-02-13T05:55:22.484Z,4.80
2023-02-13T05:57:52.454Z,4.80
2023-02-13T06:00:23.333Z,4.80
2023-02-13T06:02:53.546Z,4.70
2023-02-13T06:05:23.604Z,4.70
2023-02-13T06:07:53.652Z,4.80
2023-02-13T06:10:26.205Z,4.80
2023-02-13T06:12:56.240Z,4.80
2023-02-13T06:15:26.216Z,4.70
2023-02-13T06:17:56.290Z,4.70
2023-02-13T06:20:26.296Z,4.80
2023-02-13T06:22:56.320Z,4.80
2023-02-13T06:25:29.210Z,4.80
2023-02-13T06:27:59.243Z,4.80
2023-02-13T06:30:29.250Z,4.70
2023-02-13T06:32:59.266Z,4.70
2023-02-13T06:35:29.506Z,4.70
2023-02-13T06:37:59.505Z,4.70
2023-02-13T06:40:32.082Z,4.70
2023-02-13T06:43:02.190Z,4.80
2023-02-13T06:45:32.133Z,4.70
2023-02-13T06:48:02.164Z,4.70
2023-02-13T06:50:32.103Z,4.70
2023-02-13T06:53:02.717Z,4.70
2023-02-13T06:55:35.363Z,4.60
2023-02-13T06:58:05.422Z,4.80
2023-02-13T07:00:35.582Z,4.70
2023-02-13T07:03:06.520Z,4.70
2023-02-13T07:05:36.650Z,4.60
2023-02-13T07:08:06.740Z,4.70
2023-02-13T07:10:39.790Z,4.60
2023-02-13T07:13:09.784Z,4.60
2023-02-13T07:15:40.058Z,4.70
2023-02-13T07:18:10.165Z,4.70
2023-02-13T07:20:43.192Z,4.60
2023-02-13T07:23:13.431Z,4.60
2023-02-13T07:25:45.994Z,4.60
2023-02-13T07:28:16.342Z,4.70
2023-02-13T07:30:46.519Z,4.70
2023-02-13T07:33:16.569Z,4.60
2023-02-13T07:35:49.543Z,4.70
2023-02-13T07:38:19.940Z,4.70
2023-02-13T07:40:52.658Z,4.60
2023-02-13T07:43:22.635Z,4.60
2023-02-13T07:45:55.684Z,4.60
2023-02-13T07:48:27.468Z,4.60
2023-02-13T07:50:59.058Z,4.60
2023-02-13T07:53:29.211Z,4.70
2023-02-13T07:56:01.868Z,4.70
2023-02-13T07:58:31.868Z,4.70
2023-02-13T08:01:01.947Z,4.70
2023-02-13T08:03:32.033Z,4.70
2023-02-13T08:06:02.217Z,4.80
2023-02-13T08:08:32.238Z,4.80
2023-02-13T08:11:21.968Z,4.80
2023-02-13T08:13:51.999Z,4.80
2023-02-13T08:16:22.192Z,4.80
2023-02-13T08:18:52.230Z,4.80
2023-02-13T08:21:22.370Z,4.80
2023-02-13T08:23:52.360Z,4.90
2023-02-13T08:26:25.090Z,4.80
2023-02-13T08:28:55.175Z,4.90
2023-02-13T08:31:25.364Z,4.90
2023-02-13T08:33:55.408Z,4.90
2023-02-13T08:36:25.486Z,4.90
2023-02-13T08:38:55.505Z,5.00
2023-02-13T08:41:28.434Z,4.90
2023-02-13T08:43:58.452Z,5.00
2023-02-13T08:46:28.537Z,4.90
2023-02-13T08:48:58.977Z,5.10
2023-02-13T08:51:29.092Z,5.10
2023-02-13T08:53:59.165Z,5.20
2023-02-13T08:56:31.912Z,5.20
2023-02-13T08:59:02.035Z,5.20
2023-02-13T09:01:32.214Z,5.30
2023-02-13T09:04:02.400Z,5.30
2023-02-13T09:06:32.679Z,5.30
2023-02-13T09:09:03.571Z,5.40
2023-02-13T09:11:36.391Z,5.40
2023-02-13T09:14:06.547Z,5.50
2023-02-13T09:16:37.024Z,5.50
2023-02-13T09:19:07.241Z,5.60
2023-02-13T09:21:37.588Z,5.60
2023-02-13T09:24:09.956Z,5.70
2023-02-13T09:26:42.682Z,5.70
2023-02-13T09:29:12.727Z,5.80
2023-02-13T09:31:42.768Z,5.80
2023-02-13T09:34:12.868Z,5.90
2023-02-13T09:36:43.100Z,5.90
2023-02-13T09:39:13.119Z,6.00
2023-02-13T09:41:47.922Z,6.00
2023-02-13T09:44:34.252Z,6.10
2023-02-13T09:47:06.075Z,6.20
2023-02-13T09:49:38.211Z,6.20
2023-02-13T09:52:08.308Z,6.30
2023-02-13T09:54:38.339Z,6.30
2023-02-13T09:57:15.647Z,6.40
2023-02-13T09:59:59.743Z,6.50
2023-02-13T10:02:38.822Z,6.60
2023-02-13T10:05:13.334Z,6.70
2023-02-13T10:07:48.235Z,6.80
2023-02-13T10:10:23.243Z,6.80
2023-02-13T10:13:08.006Z,6.90
2023-02-13T10:15:45.636Z,7.00
2023-02-13T10:18:18.356Z,7.00
2023-02-13T10:20:50.759Z,7.10
2023-02-13T10:23:25.055Z,7.20
2023-02-13T10:25:58.818Z,7.20
2023-02-13T10:28:34.000Z,7.30
2023-02-13T10:31:10.113Z,7.40
2023-02-13T10:33:44.116Z,7.40
2023-02-13T10:36:18.906Z,7.50
2023-02-13T10:38:51.884Z,7.60
2023-02-13T10:41:26.905Z,7.70
2023-02-13T10:44:05.770Z,7.70
2023-02-13T10:46:44.803Z,7.80
2023-02-13T10:49:33.546Z,7.90
2023-02-13T10:52:11.333Z,8.00
2023-02-13T10:54:54.497Z,8.10
2023-02-13T10:57:28.290Z,8.20
2023-02-13T11:00:05.207Z,8.30
2023-02-13T11:02:38.915Z,8.30
2023-02-13T11:05:16.454Z,8.40
2023-02-13T11:07:47.157Z,8.40
2023-02-13T11:10:18.828Z,8.40
2023-02-13T11:12:49.141Z,8.40
2023-02-13T11:15:28.593Z,8.50
2023-02-13T11:18:02.756Z,8.50
2023-02-13T11:20:35.820Z,8.60
2023-02-13T11:23:20.413Z,8.70
2023-02-13T11:25:58.864Z,8.80
2023-02-13T11:28:30.679Z,8.80
2023-02-13T11:31:12.890Z,8.80
2023-02-13T11:33:45.608Z,8.90
2023-02-13T11:36:18.513Z,8.90
2023-02-13T11:38:48.475Z,9.00
2023-02-13T11:41:22.227Z,9.10
2023-02-13T11:43:53.469Z,9.10
2023-02-13T11:46:24.757Z,9.20
2023-02-13T11:49:05.822Z,9.30
2023-02-13T11:51:40.146Z,9.30
2023-02-13T11:54:20.884Z,9.30
2023-02-13T11:57:03.971Z,9.40
2023-02-13T11:59:36.216Z,9.40
2023-02-13T12:02:07.674Z,9.50
2023-02-13T12:04:40.375Z,9.50
2023-02-13T12:07:16.237Z,9.60
2023-02-13T12:09:47.072Z,9.70
2023-02-13T12:12:20.171Z,9.70
2023-02-13T12:14:50.243Z,9.70
2023-02-13T12:17:31.299Z,9.90
2023-02-13T12:20:05.046Z,9.90
2023-02-13T12:22:37.243Z,10.00
2023-02-13T12:25:17.661Z,10.10
2023-02-13T12:27:52.901Z,10.20
2023-02-13T12:30:35.282Z,10.20
2023-02-13T12:33:10.897Z,10.10
2023-02-13T12:35:56.510Z,10.30
2023-02-13T12:38:41.029Z,10.20
2023-02-13T12:41:17.506Z,10.40
2023-02-13T12:43:56.558Z,10.50
2023-02-13T12:46:30.104Z,10.50
2023-02-13T12:49:03.833Z,10.50
2023-02-13T12:51:44.283Z,10.70
2023-02-13T12:54:31.273Z,10.80
2023-02-13T12:57:06.745Z,10.80
2023-02-13T12:59:43.967Z,10.80
2023-02-13T13:02:29.095Z,10.80
2023-02-13T13:05:12.666Z,10.90
2023-02-13T13:08:01.453Z,11.00
2023-02-13T13:10:50.936Z,11.00
2023-02-13T13:13:29.940Z,11.10
2023-02-13T13:16:03.169Z,11.10
2023-02-13T13:18:43.013Z,11.10
2023-02-13T13:21:20.099Z,11.20
2023-02-13T13:23:53.319Z,11.30
2023-02-13T13:26:26.178Z,11.30
2023-02-13T13:28:59.642Z,11.30
2023-02-13T13:31:30.253Z,11.40
2023-02-13T13:34:04.784Z,11.40
2023-02-13T13:36:39.849Z,11.50
2023-02-13T13:39:12.913Z,11.50
2023-02-13T13:41:46.304Z,11.50
2023-02-13T13:44:26.523Z,11.60
2023-02-13T13:47:00.016Z,11.60
2023-02-13T13:49:38.006Z,11.60
2023-02-13T13:52:22.506Z,11.70
2023-02-13T13:54:54.419Z,11.70
2023-02-13T13:57:24.736Z,11.80
2023-02-13T14:00:18.838Z,11.80
2023-02-13T14:02:52.965Z,11.80
2023-02-13T14:05:27.788Z,11.80
2023-02-13T14:07:58.930Z,11.90
2023-02-13T14:10:44.024Z,11.90
2023-02-13T14:13:31.606Z,12.00
2023-02-13T14:16:01.960Z,12.00
2023-02-13T14:18:35.068Z,12.00
2023-02-13T14:21:06.087Z,12.00
2023-02-13T14:23:38.955Z,12.10
2023-02-13T14:26:23.890Z,12.10
2023-02-13T14:29:01.546Z,12.10
2023-02-13T14:31:33.019Z,12.10
2023-02-13T14:34:07.517Z,12.20
2023-02-13T14:36:38.547Z,12.10
2023-02-13T14:39:10.232Z,12.20
2023-02-13T14:41:47.794Z,12.30
2023-02-13T14:44:21.059Z,12.20
2023-02-13T14:46:52.243Z,12.20
2023-02-13T14:49:27.252Z,12.10
2023-02-13T14:51:58.312Z,12.20
2023-02-13T14:54:30.261Z,12.20
2023-02-13T14:57:03.911Z,12.20
2023-02-13T14:59:36.894Z,12.20
2023-02-13T15:02:16.254Z,12.20
2023-02-13T15:04:49.934Z,12.20
2023-02-13T15:07:23.773Z,12.30
2023-02-13T15:09:55.770Z,12.20
2023-02-13T15:12:30.009Z,12.30
2023-02-13T15:15:01.447Z,12.30
2023-02-13T15:17:33.029Z,12.20
2023-02-13T15:20:07.657Z,12.20
2023-02-13T15:22:39.688Z,12.30
2023-02-13T15:25:11.130Z,12.30
2023-02-13T15:27:43.592Z,12.20
2023-02-13T15:30:22.505Z,12.20
2023-02-13T15:32:57.692Z,12.30
2023-02-13T15:35:31.263Z,12.30
2023-02-13T15:38:02.015Z,12.30
2023-02-13T15:40:32.779Z,12.30
2023-02-13T15:43:03.803Z,12.30
2023-02-13T15:45:33.830Z,12.20
2023-02-13T15:48:04.208Z,12.20
2023-02-13T15:50:38.304Z,12.30
2023-02-13T15:53:12.987Z,12.20
2023-02-13T15:55:42.954Z,12.20
2023-02-13T15:58:15.672Z,12.10
2023-02-13T16:00:46.023Z,12.10
2023-02-13T16:03:18.314Z,12.10
2023-02-13T16:05:51.939Z,12.10
2023-02-13T16:08:36.217Z,12.10
2023-02-13T16:11:23.875Z,12.00
2023-02-13T16:14:00.986Z,12.00
2023-02-13T16:16:31.728Z,12.10
2023-02-13T16:19:01.982Z,12.00
2023-02-13T16:21:36.035Z,12.00
2023-02-13T16:24:07.399Z,11.90
2023-02-13T16:26:39.383Z,11.80
2023-02-13T16:29:12.351Z,11.90
2023-02-13T16:31:43.139Z,11.90
2023-02-13T16:34:17.172Z,11.80
2023-02-13T16:36:49.839Z,11.80
2023-02-13T16:39:23.653Z,11.80
2023-02-13T16:41:55.082Z,11.70
2023-02-13T16:44:25.884Z,11.70
2023-02-13T16:46:57.544Z,11.60
2023-02-13T16:49:28.624Z,11.60
2023-02-13T16:52:03.410Z,11.60
2023-02-13T16:54:35.517Z,11.50
2023-02-13T16:57:08.066Z,11.50
2023-02-13T16:59:52.009Z,11.40
2023-02-13T17:02:23.444Z,11.30
2023-02-13T17:04:54.665Z,11.20
2023-02-13T17:07:28.549Z,11.20
2023-02-13T17:10:00.204Z,11.20
2023-02-13T17:12:31.191Z,11.20
2023-02-13T17:15:01.851Z,11.10
2023-02-13T17:17:33.086Z,11.10
2023-02-13T17:20:04.564Z,11.10
2023-02-13T17:22:39.354Z,11.00
2023-02-13T17:25:11.082Z,10.90
2023-02-13T17:27:41.068Z,10.90
2023-02-13T17:30:11.854Z,10.90
2023-02-13T17:32:41.936Z,10.90
2023-02-13T17:35:13.677Z,10.80
2023-02-13T17:37:47.031Z,10.80
2023-02-13T17:40:19.262Z,10.70
2023-02-13T17:42:49.959Z,10.70
2023-02-13T17:45:21.080Z,10.70
2023-02-13T17:47:51.042Z,10.60
2023-02-13T17:50:21.135Z,10.50
2023-02-13T17:52:54.026Z,10.50
2023-02-13T17:55:25.067Z,10.50
2023-02-13T17:57:56.612Z,10.40
2023-02-13T18:00:28.195Z,10.40
2023-02-13T18:02:59.432Z,10.40
2023-02-13T18:05:29.739Z,10.30
2023-02-13T18:08:02.953Z,10.30
2023-02-13T18:10:33.739Z,10.30
2023-02-13T18:13:07.082Z,10.30
2023-02-13T18:15:37.945Z,10.30
2023-02-13T18:18:08.281Z,10.30
2023-02-13T18:20:38.375Z,10.20
2023-02-13T18:23:11.194Z,10.30
2023-02-13T18:25:41.380Z,10.30
2023-02-13T18:28:11.441Z,10.20
2023-02-13T18:30:44.423Z,10.20
2023-02-13T18:33:14.573Z,10.20
2023-02-13T18:35:44.621Z,10.10
2023-02-13T18:38:17.295Z,10.10
2023-02-13T18:40:47.314Z,10.00
2023-02-13T18:43:17.600Z,10.00
2023-02-13T18:45:47.908Z,10.00
2023-02-13T18:48:18.003Z,9.90
2023-02-13T18:50:48.197Z,9.90
2023-02-13T18:53:20.869Z,10.00
2023-02-13T18:55:51.376Z,9.90
2023-02-13T18:58:22.321Z,9.90
2023-02-13T19:00:52.327Z,9.90
2023-02-13T19:03:22.391Z,9.90
2023-02-13T19:05:52.454Z,9.90
2023-02-13T19:08:25.102Z,9.80
2023-02-13T19:10:55.135Z,9.80
2023-02-13T19:13:25.240Z,9.80
2023-02-13T19:15:55.299Z,9.80
2023-02-13T19:18:28.114Z,9.80
2023-02-13T19:21:01.585Z,9.60
2023-02-13T19:23:34.368Z,9.70
2023-02-13T19:26:07.854Z,9.70
2023-02-13T19:28:38.412Z,9.60
2023-02-13T19:31:09.206Z,9.70
2023-02-13T19:33:40.244Z,9.70
2023-02-13T19:36:12.472Z,9.60
2023-02-13T19:38:46.272Z,9.60
2023-02-13T19:41:17.299Z,9.60
2023-02-13T19:43:51.001Z,9.60
2023-02-13T19:46:21.844Z,9.50
2023-02-13T19:48:52.753Z,9.50
2023-02-13T19:51:24.430Z,9.50
2023-02-13T19:54:01.115Z,9.40
2023-02-13T19:56:32.123Z,9.50
2023-02-13T19:59:02.151Z,9.50
2023-02-13T20:01:32.844Z,9.40
2023-02-13T20:04:02.901Z,9.40
2023-02-13T20:06:35.179Z,9.40
2023-02-13T20:09:08.957Z,9.40
2023-02-13T20:11:39.037Z,9.30
2023-02-13T20:14:11.666Z,9.30
2023-02-13T20:16:43.081Z,9.30
2023-02-13T20:19:14.095Z,9.30
2023-02-13T20:21:44.654Z,9.30
2023-02-13T20:24:17.281Z,9.20
2023-02-13T20:26:47.357Z,9.20
2023-02-13T20:29:17.476Z,9.10
2023-02-13T20:31:47.665Z,9.10
2023-02-13T20:34:19.897Z,9.10
2023-02-13T20:36:50.362Z,9.10
2023-02-13T20:39:23.616Z,9.10
2023-02-13T20:41:53.639Z,9.10
2023-02-13T20:44:24.011Z,9.00
2023-02-13T20:46:55.093Z,9.00
2023-02-13T20:49:26.754Z,9.00
2023-02-13T20:51:56.870Z,9.00
2023-02-13T20:54:29.527Z,9.00
2023-02-13T20:56:59.581Z,9.00
2023-02-13T20:59:29.591Z,9.00
2023-02-13T21:01:59.602Z,9.00
2023-02-13T21:04:30.408Z,9.00
2023-02-13T21:07:00.492Z,9.00
2023-02-13T21:09:33.468Z,9.00
2023-02-13T21:12:03.498Z,8.90
2023-02-13T21:14:33.547Z,9.00
2023-02-13T21:17:03.609Z,9.00
2023-02-13T21:19:34.152Z,9.00
2023-02-13T21:22:12.223Z,9.00
2023-02-13T21:24:45.634Z,9.10
2023-02-13T21:27:15.648Z,9.10
2023-02-13T21:29:45.687Z,9.10
2023-02-13T21:32:15.801Z,9.10
2023-02-13T21:34:45.863Z,9.00
2023-02-13T21:37:15.925Z,9.00
2023-02-13T21:39:48.596Z,9.10
2023-02-13T21:42:18.718Z,9.00
2023-02-13T21:44:49.537Z,9.00
2023-02-13T21:47:19.878Z,9.00
2023-02-13T21:49:51.027Z,9.00
2023-02-13T21:52:21.068Z,9.00
2023-02-13T21:54:53.732Z,9.00
2023-02-13T21:57:23.749Z,9.00
2023-02-13T21:59:54.005Z,8.90
2023-02-13T22:02:24.196Z,8.90
2023-02-13T22:04:54.407Z,9.00
2023-02-13T22:07:24.476Z,9.00
2023-02-13T22:09:57.156Z,8.90
2023-02-13T22:12:27.183Z,8.90
2023-02-13T22:14:57.466Z,9.00
2023-02-13T22:17:27.504Z,8.90
2023-02-13T22:19:57.726Z,8.90
2023-02-13T22:22:27.735Z,8.90
2023-02-13T22:25:00.490Z,8.80
2023-02-13T22:27:31.177Z,8.80
2023-02-13T22:30:04.363Z,8.90
2023-02-13T22:32:34.520Z,8.80
2023-02-13T22:35:05.055Z,8.80
2023-02-13T22:37:35.251Z,8.70
2023-02-13T22:40:08.540Z,8.80
2023-02-13T22:42:38.615Z,8.70
2023-02-13T22:45:09.182Z,8.80
2023-02-13T22:47:39.220Z,8.70
2023-02-13T22:50:10.198Z,8.80
2023-02-13T22:52:40.237Z,8.80
2023-02-13T22:55:12.903Z,8.80
2023-02-13T22:57:42.915Z,8.70
2023-02-13T23:00:14.190Z,8.70
2023-02-13T23:02:44.252Z,8.60
2023-02-13T23:05:14.331Z,8.60
2023-02-13T23:07:44.600Z,8.60
2023-02-13T23:10:19.075Z,8.60
2023-02-13T23:12:46.609Z,8.50
2023-02-13T23:15:17.290Z,8.60
2023-02-13T23:17:59.711Z,8.60
2023-02-13T23:20:30.436Z,8.70
2023-02-13T23:23:00.557Z,8.50
2023-02-13T23:25:33.377Z,8.60
2023-02-13T23:28:03.708Z,8.60
2023-02-13T23:30:34.051Z,8.50
2023-02-13T23:33:04.284Z,8.50
2023-02-13T23:35:34.381Z,8.50
2023-02-13T23:38:04.558Z,8.50
2023-02-13T23:40:37.464Z,8.50
2023-02-13T23:43:10.120Z,8.50
2023-02-13T23:45:40.456Z,8.50
2023-02-13T23:48:11.968Z,8.50
2023-02-13T23:50:42.314Z,8.50
2023-02-13T23:53:12.640Z,8.50
2023-02-13T23:55:45.381Z,8.40
2023-02-13T23:58:15.865Z,8.50
